Terminal Aerodrome Forecast
Issued by NWS

Home | Current Version | Previous Version | Text Only | Print | Product List | Glossary On
Versions: 1 2 3 4 5 6 7 8 9 10 11 12 13 14 15 16 17 18 19 20 21 22 23 24 25 26 27 28 29 30 31 32 33 34 35 36 37 38 39 40 41 42 43
000
FTUS45 KCYS 011125
TAFLAR
TAF
KLAR 011125Z 0112/0212 34010KT P6SM OVC040
     FM011700 34014KT P6SM BKN070
     FM020100 26009KT P6SM SCT250
     FM020700 26021G30KT P6SM OVC060=

USA.gov is the U.S. government's official web portal to all federal, state and local government web resources and services.